sensor_id;sensor_type;location;lat;lon;timestamp;P1;durP1;ratioP1;P2;durP2;ratioP2
74342;SDS011;62767;50.300;8.070;2023-12-20T00:01:41;0.57;;;0.55;;
74342;SDS011;62767;50.300;8.070;2023-12-20T00:04:07;0.70;;;0.50;;
74342;SDS011;62767;50.300;8.070;2023-12-20T00:06:33;1.10;;;0.60;;
74342;SDS011;62767;50.300;8.070;2023-12-20T00:08:59;1.25;;;0.55;;
74342;SDS011;62767;50.300;8.070;2023-12-20T00:11:25;1.05;;;0.63;;
74342;SDS011;62767;50.300;8.070;2023-12-20T00:13:51;0.73;;;0.45;;
74342;SDS011;62767;50.300;8.070;2023-12-20T00:16:17;0.50;;;0.30;;
74342;SDS011;62767;50.300;8.070;2023-12-20T00:18:44;0.50;;;0.50;;
74342;SDS011;62767;50.300;8.070;2023-12-20T00:21:10;0.70;;;0.50;;
74342;SDS011;62767;50.300;8.070;2023-12-20T00:23:36;0.63;;;0.50;;
74342;SDS011;62767;50.300;8.070;2023-12-20T00:26:02;1.10;;;0.52;;
74342;SDS011;62767;50.300;8.070;2023-12-20T00:28:28;0.70;;;0.50;;
74342;SDS011;62767;50.300;8.070;2023-12-20T00:30:54;0.82;;;0.40;;
74342;SDS011;62767;50.300;8.070;2023-12-20T00:33:20;0.57;;;0.40;;
74342;SDS011;62767;50.300;8.070;2023-12-20T00:35:46;0.60;;;0.45;;
74342;SDS011;62767;50.300;8.070;2023-12-20T00:38:12;0.75;;;0.60;;
74342;SDS011;62767;50.300;8.070;2023-12-20T00:40:39;0.90;;;0.43;;
74342;SDS011;62767;50.300;8.070;2023-12-20T00:43:05;0.75;;;0.40;;
74342;SDS011;62767;50.300;8.070;2023-12-20T00:45:31;0.65;;;0.60;;
74342;SDS011;62767;50.300;8.070;2023-12-20T00:47:57;0.40;;;0.40;;
74342;SDS011;62767;50.300;8.070;2023-12-20T00:50:23;0.35;;;0.30;;
74342;SDS011;62767;50.300;8.070;2023-12-20T00:52:49;0.75;;;0.40;;
74342;SDS011;62767;50.300;8.070;2023-12-20T00:55:15;0.30;;;0.30;;
74342;SDS011;62767;50.300;8.070;2023-12-20T00:57:41;0.73;;;0.43;;
74342;SDS011;62767;50.300;8.070;2023-12-20T01:00:07;0.30;;;0.30;;
74342;SDS011;62767;50.300;8.070;2023-12-20T01:02:35;0.40;;;0.40;;
74342;SDS011;62767;50.300;8.070;2023-12-20T01:05:01;0.50;;;0.40;;
74342;SDS011;62767;50.300;8.070;2023-12-20T01:07:28;0.30;;;0.30;;
74342;SDS011;62767;50.300;8.070;2023-12-20T01:09:54;0.95;;;0.47;;
74342;SDS011;62767;50.300;8.070;2023-12-20T01:12:20;0.63;;;0.50;;
74342;SDS011;62767;50.300;8.070;2023-12-20T01:14:46;0.35;;;0.35;;
74342;SDS011;62767;50.300;8.070;2023-12-20T01:17:12;0.38;;;0.30;;
74342;SDS011;62767;50.300;8.070;2023-12-20T01:19:38;0.32;;;0.32;;
74342;SDS011;62767;50.300;8.070;2023-12-20T01:22:04;0.50;;;0.30;;
74342;SDS011;62767;50.300;8.070;2023-12-20T01:24:30;0.20;;;0.20;;
74342;SDS011;62767;50.300;8.070;2023-12-20T01:26:57;0.90;;;0.50;;
74342;SDS011;62767;50.300;8.070;2023-12-20T01:29:23;0.65;;;0.40;;
74342;SDS011;62767;50.300;8.070;2023-12-20T01:31:49;0.50;;;0.40;;
74342;SDS011;62767;50.300;8.070;2023-12-20T01:34:15;0.20;;;0.20;;
74342;SDS011;62767;50.300;8.070;2023-12-20T01:36:42;0.47;;;0.40;;
74342;SDS011;62767;50.300;8.070;2023-12-20T01:39:08;0.50;;;0.30;;
74342;SDS011;62767;50.300;8.070;2023-12-20T01:41:34;0.47;;;0.38;;
74342;SDS011;62767;50.300;8.070;2023-12-20T01:44:00;0.40;;;0.40;;
74342;SDS011;62767;50.300;8.070;2023-12-20T01:46:26;0.40;;;0.40;;
74342;SDS011;62767;50.300;8.070;2023-12-20T01:48:53;0.40;;;0.28;;
74342;SDS011;62767;50.300;8.070;2023-12-20T01:51:19;0.82;;;0.50;;
74342;SDS011;62767;50.300;8.070;2023-12-20T01:53:46;1.02;;;0.35;;
74342;SDS011;62767;50.300;8.070;2023-12-20T01:56:13;0.85;;;0.30;;
74342;SDS011;62767;50.300;8.070;2023-12-20T01:58:42;0.65;;;0.40;;
74342;SDS011;62767;50.300;8.070;2023-12-20T02:01:11;0.77;;;0.45;;
74342;SDS011;62767;50.300;8.070;2023-12-20T02:03:37;0.30;;;0.30;;
74342;SDS011;62767;50.300;8.070;2023-12-20T02:06:04;0.40;;;0.30;;
74342;SDS011;62767;50.300;8.070;2023-12-20T02:08:31;1.13;;;0.43;;
74342;SDS011;62767;50.300;8.070;2023-12-20T02:10:57;0.20;;;0.20;;
74342;SDS011;62767;50.300;8.070;2023-12-20T02:13:23;0.60;;;0.40;;
74342;SDS011;62767;50.300;8.070;2023-12-20T02:15:50;0.98;;;0.20;;
74342;SDS011;62767;50.300;8.070;2023-12-20T02:18:16;0.30;;;0.30;;
74342;SDS011;62767;50.300;8.070;2023-12-20T02:20:42;0.30;;;0.30;;
74342;SDS011;62767;50.300;8.070;2023-12-20T02:23:08;0.30;;;0.30;;
74342;SDS011;62767;50.300;8.070;2023-12-20T02:25:34;1.98;;;0.50;;
74342;SDS011;62767;50.300;8.070;2023-12-20T02:28:00;0.57;;;0.40;;
74342;SDS011;62767;50.300;8.070;2023-12-20T02:30:27;0.60;;;0.35;;
74342;SDS011;62767;50.300;8.070;2023-12-20T02:32:53;0.30;;;0.30;;
74342;SDS011;62767;50.300;8.070;2023-12-20T02:35:21;0.55;;;0.30;;
74342;SDS011;62767;50.300;8.070;2023-12-20T02:37:47;0.30;;;0.30;;
74342;SDS011;62767;50.300;8.070;2023-12-20T02:40:13;0.30;;;0.30;;
74342;SDS011;62767;50.300;8.070;2023-12-20T02:42:39;0.20;;;0.20;;
74342;SDS011;62767;50.300;8.070;2023-12-20T02:45:06;0.40;;;0.20;;
74342;SDS011;62767;50.300;8.070;2023-12-20T02:47:32;0.93;;;0.50;;
74342;SDS011;62767;50.300;8.070;2023-12-20T02:49:58;0.50;;;0.32;;
74342;SDS011;62767;50.300;8.070;2023-12-20T02:52:24;0.25;;;0.20;;
74342;SDS011;62767;50.300;8.070;2023-12-20T02:54:50;0.30;;;0.22;;
74342;SDS011;62767;50.300;8.070;2023-12-20T02:57:16;0.25;;;0.20;;
74342;SDS011;62767;50.300;8.070;2023-12-20T02:59:43;0.30;;;0.30;;
74342;SDS011;62767;50.300;8.070;2023-12-20T03:02:09;0.17;;;0.17;;
74342;SDS011;62767;50.300;8.070;2023-12-20T03:04:35;1.13;;;0.30;;
74342;SDS011;62767;50.300;8.070;2023-12-20T03:07:01;0.30;;;0.30;;
74342;SDS011;62767;50.300;8.070;2023-12-20T03:09:27;0.20;;;0.20;;
74342;SDS011;62767;50.300;8.070;2023-12-20T03:11:53;1.13;;;0.38;;
74342;SDS011;62767;50.300;8.070;2023-12-20T03:14:19;0.20;;;0.20;;
74342;SDS011;62767;50.300;8.070;2023-12-20T03:16:51;0.20;;;0.17;;
74342;SDS011;62767;50.300;8.070;2023-12-20T03:19:17;0.30;;;0.30;;
74342;SDS011;62767;50.300;8.070;2023-12-20T03:21:45;0.32;;;0.30;;
74342;SDS011;62767;50.300;8.070;2023-12-20T03:24:11;0.15;;;0.15;;
74342;SDS011;62767;50.300;8.070;2023-12-20T03:26:37;2.42;;;0.60;;
74342;SDS011;62767;50.300;8.070;2023-12-20T03:29:03;0.47;;;0.20;;
74342;SDS011;62767;50.300;8.070;2023-12-20T03:31:29;0.57;;;0.30;;
74342;SDS011;62767;50.300;8.070;2023-12-20T03:33:55;0.25;;;0.25;;
74342;SDS011;62767;50.300;8.070;2023-12-20T03:36:21;0.30;;;0.30;;
74342;SDS011;62767;50.300;8.070;2023-12-20T03:38:47;0.30;;;0.20;;
74342;SDS011;62767;50.300;8.070;2023-12-20T03:41:13;0.20;;;0.20;;
74342;SDS011;62767;50.300;8.070;2023-12-20T03:43:39;1.30;;;0.30;;
74342;SDS011;62767;50.300;8.070;2023-12-20T03:46:07;0.28;;;0.15;;
74342;SDS011;62767;50.300;8.070;2023-12-20T03:48:34;0.55;;;0.35;;
74342;SDS011;62767;50.300;8.070;2023-12-20T03:51:00;0.65;;;0.40;;
74342;SDS011;62767;50.300;8.070;2023-12-20T03:53:26;0.13;;;0.13;;
74342;SDS011;62767;50.300;8.070;2023-12-20T03:55:52;0.73;;;0.40;;
74342;SDS011;62767;50.300;8.070;2023-12-20T03:58:18;1.70;;;0.60;;
74342;SDS011;62767;50.300;8.070;2023-12-20T04:00:44;0.65;;;0.50;;
74342;SDS011;62767;50.300;8.070;2023-12-20T04:03:11;1.30;;;0.60;;
74342;SDS011;62767;50.300;8.070;2023-12-20T04:05:40;1.23;;;0.60;;
74342;SDS011;62767;50.300;8.070;2023-12-20T04:08:06;1.63;;;0.65;;
74342;SDS011;62767;50.300;8.070;2023-12-20T04:10:33;1.63;;;0.90;;
74342;SDS011;62767;50.300;8.070;2023-12-20T04:12:59;2.35;;;1.00;;
74342;SDS011;62767;50.300;8.070;2023-12-20T04:15:25;3.08;;;1.08;;
74342;SDS011;62767;50.300;8.070;2023-12-20T04:17:51;3.65;;;1.17;;
74342;SDS011;62767;50.300;8.070;2023-12-20T04:20:17;2.83;;;0.77;;
74342;SDS011;62767;50.300;8.070;2023-12-20T04:22:43;4.75;;;1.23;;
74342;SDS011;62767;50.300;8.070;2023-12-20T04:25:09;5.47;;;1.20;;
74342;SDS011;62767;50.300;8.070;2023-12-20T04:27:35;3.50;;;1.70;;
74342;SDS011;62767;50.300;8.070;2023-12-20T04:30:01;3.55;;;0.98;;
74342;SDS011;62767;50.300;8.070;2023-12-20T04:32:28;9.63;;;1.10;;
74342;SDS011;62767;50.300;8.070;2023-12-20T04:34:54;4.03;;;0.70;;
74342;SDS011;62767;50.300;8.070;2023-12-20T04:37:20;4.15;;;0.95;;
74342;SDS011;62767;50.300;8.070;2023-12-20T04:39:46;4.50;;;1.10;;
74342;SDS011;62767;50.300;8.070;2023-12-20T04:42:12;2.08;;;0.57;;
74342;SDS011;62767;50.300;8.070;2023-12-20T04:44:38;3.53;;;0.80;;
74342;SDS011;62767;50.300;8.070;2023-12-20T04:47:04;3.03;;;0.73;;
74342;SDS011;62767;50.300;8.070;2023-12-20T04:49:30;2.40;;;0.73;;
74342;SDS011;62767;50.300;8.070;2023-12-20T04:51:56;2.95;;;0.68;;
74342;SDS011;62767;50.300;8.070;2023-12-20T04:54:22;2.25;;;0.70;;
74342;SDS011;62767;50.300;8.070;2023-12-20T04:56:49;2.58;;;0.50;;
74342;SDS011;62767;50.300;8.070;2023-12-20T04:59:15;1.38;;;0.60;;
74342;SDS011;62767;50.300;8.070;2023-12-20T05:01:41;1.55;;;0.38;;
74342;SDS011;62767;50.300;8.070;2023-12-20T05:04:07;4.30;;;0.93;;
74342;SDS011;62767;50.300;8.070;2023-12-20T05:06:33;1.92;;;0.47;;
74342;SDS011;62767;50.300;8.070;2023-12-20T05:08:59;2.85;;;0.60;;
74342;SDS011;62767;50.300;8.070;2023-12-20T05:11:25;3.10;;;0.68;;
74342;SDS011;62767;50.300;8.070;2023-12-20T05:13:51;2.75;;;0.70;;
74342;SDS011;62767;50.300;8.070;2023-12-20T05:16:17;1.40;;;0.50;;
74342;SDS011;62767;50.300;8.070;2023-12-20T05:18:44;1.38;;;0.60;;
74342;SDS011;62767;50.300;8.070;2023-12-20T05:21:11;1.80;;;0.40;;
74342;SDS011;62767;50.300;8.070;2023-12-20T05:23:37;2.83;;;1.05;;
74342;SDS011;62767;50.300;8.070;2023-12-20T05:26:03;1.08;;;0.50;;
74342;SDS011;62767;50.300;8.070;2023-12-20T05:28:29;2.05;;;0.50;;
74342;SDS011;62767;50.300;8.070;2023-12-20T05:30:55;1.67;;;0.60;;
74342;SDS011;62767;50.300;8.070;2023-12-20T05:33:21;1.58;;;0.40;;
74342;SDS011;62767;50.300;8.070;2023-12-20T05:35:48;2.30;;;0.40;;
74342;SDS011;62767;50.300;8.070;2023-12-20T05:38:14;0.85;;;0.38;;
74342;SDS011;62767;50.300;8.070;2023-12-20T05:40:40;1.73;;;0.60;;
74342;SDS011;62767;50.300;8.070;2023-12-20T05:43:06;0.88;;;0.30;;
74342;SDS011;62767;50.300;8.070;2023-12-20T05:45:32;0.93;;;0.57;;
74342;SDS011;62767;50.300;8.070;2023-12-20T05:47:58;1.35;;;0.50;;
74342;SDS011;62767;50.300;8.070;2023-12-20T05:50:24;1.02;;;0.50;;
74342;SDS011;62767;50.300;8.070;2023-12-20T05:52:50;0.95;;;0.50;;
74342;SDS011;62767;50.300;8.070;2023-12-20T05:55:17;2.08;;;0.40;;
74342;SDS011;62767;50.300;8.070;2023-12-20T05:57:43;1.17;;;0.50;;
74342;SDS011;62767;50.300;8.070;2023-12-20T06:00:09;1.55;;;0.50;;
74342;SDS011;62767;50.300;8.070;2023-12-20T06:02:39;0.90;;;0.28;;
74342;SDS011;62767;50.300;8.070;2023-12-20T06:05:06;2.42;;;0.50;;
74342;SDS011;62767;50.300;8.070;2023-12-20T06:07:32;3.03;;;0.40;;
74342;SDS011;62767;50.300;8.070;2023-12-20T06:09:58;1.13;;;0.50;;
74342;SDS011;62767;50.300;8.070;2023-12-20T06:12:24;1.80;;;0.40;;
74342;SDS011;62767;50.300;8.070;2023-12-20T06:14:52;0.95;;;0.35;;
74342;SDS011;62767;50.300;8.070;2023-12-20T06:17:18;2.60;;;0.60;;
74342;SDS011;62767;50.300;8.070;2023-12-20T06:19:44;0.82;;;0.30;;
74342;SDS011;62767;50.300;8.070;2023-12-20T06:22:14;1.50;;;0.60;;
74342;SDS011;62767;50.300;8.070;2023-12-20T06:24:41;1.52;;;0.30;;
74342;SDS011;62767;50.300;8.070;2023-12-20T06:27:07;0.68;;;0.30;;
74342;SDS011;62767;50.300;8.070;2023-12-20T06:29:33;3.42;;;0.55;;
74342;SDS011;62767;50.300;8.070;2023-12-20T06:32:00;0.93;;;0.43;;
74342;SDS011;62767;50.300;8.070;2023-12-20T06:34:26;1.90;;;0.30;;
74342;SDS011;62767;50.300;8.070;2023-12-20T06:36:52;2.15;;;0.30;;
74342;SDS011;62767;50.300;8.070;2023-12-20T06:39:18;1.98;;;0.60;;
74342;SDS011;62767;50.300;8.070;2023-12-20T06:41:44;0.52;;;0.30;;
74342;SDS011;62767;50.300;8.070;2023-12-20T06:44:10;2.08;;;0.50;;
74342;SDS011;62767;50.300;8.070;2023-12-20T06:46:36;1.02;;;0.70;;
74342;SDS011;62767;50.300;8.070;2023-12-20T06:49:02;0.90;;;0.40;;
74342;SDS011;62767;50.300;8.070;2023-12-20T06:51:28;2.00;;;0.50;;
74342;SDS011;62767;50.300;8.070;2023-12-20T06:53:56;1.30;;;0.50;;
74342;SDS011;62767;50.300;8.070;2023-12-20T06:56:22;2.28;;;0.50;;
74342;SDS011;62767;50.300;8.070;2023-12-20T06:58:48;0.88;;;0.30;;
74342;SDS011;62767;50.300;8.070;2023-12-20T07:01:15;0.90;;;0.40;;
74342;SDS011;62767;50.300;8.070;2023-12-20T07:03:41;1.67;;;0.40;;
74342;SDS011;62767;50.300;8.070;2023-12-20T07:06:08;2.25;;;0.30;;
74342;SDS011;62767;50.300;8.070;2023-12-20T07:08:34;0.40;;;0.40;;
74342;SDS011;62767;50.300;8.070;2023-12-20T07:11:00;2.60;;;0.35;;
74342;SDS011;62767;50.300;8.070;2023-12-20T07:13:26;1.33;;;0.20;;
74342;SDS011;62767;50.300;8.070;2023-12-20T07:15:52;0.88;;;0.43;;
74342;SDS011;62767;50.300;8.070;2023-12-20T07:18:18;1.00;;;0.30;;
74342;SDS011;62767;50.300;8.070;2023-12-20T07:20:44;1.45;;;0.30;;
74342;SDS011;62767;50.300;8.070;2023-12-20T07:23:10;0.98;;;0.43;;
74342;SDS011;62767;50.300;8.070;2023-12-20T07:25:37;0.98;;;0.40;;
74342;SDS011;62767;50.300;8.070;2023-12-20T07:28:03;2.03;;;0.38;;
74342;SDS011;62767;50.300;8.070;2023-12-20T07:30:29;1.08;;;0.38;;
74342;SDS011;62767;50.300;8.070;2023-12-20T07:32:56;0.40;;;0.30;;
74342;SDS011;62767;50.300;8.070;2023-12-20T07:35:23;1.02;;;0.30;;
74342;SDS011;62767;50.300;8.070;2023-12-20T07:37:49;1.85;;;0.45;;
74342;SDS011;62767;50.300;8.070;2023-12-20T07:40:15;0.98;;;0.30;;
74342;SDS011;62767;50.300;8.070;2023-12-20T07:42:42;1.33;;;0.40;;
74342;SDS011;62767;50.300;8.070;2023-12-20T07:45:08;0.75;;;0.30;;
74342;SDS011;62767;50.300;8.070;2023-12-20T07:47:36;0.47;;;0.32;;
74342;SDS011;62767;50.300;8.070;2023-12-20T07:50:02;1.00;;;0.35;;
74342;SDS011;62767;50.300;8.070;2023-12-20T07:52:29;0.25;;;0.25;;
74342;SDS011;62767;50.300;8.070;2023-12-20T07:54:55;0.82;;;0.55;;
74342;SDS011;62767;50.300;8.070;2023-12-20T07:57:21;0.90;;;0.40;;
74342;SDS011;62767;50.300;8.070;2023-12-20T07:59:47;2.28;;;0.40;;
74342;SDS011;62767;50.300;8.070;2023-12-20T08:02:13;0.63;;;0.40;;
74342;SDS011;62767;50.300;8.070;2023-12-20T08:04:39;0.32;;;0.25;;
74342;SDS011;62767;50.300;8.070;2023-12-20T08:07:06;0.43;;;0.30;;
74342;SDS011;62767;50.300;8.070;2023-12-20T08:09:32;3.45;;;0.60;;
74342;SDS011;62767;50.300;8.070;2023-12-20T08:11:59;0.85;;;0.50;;
74342;SDS011;62767;50.300;8.070;2023-12-20T08:14:26;0.80;;;0.50;;
74342;SDS011;62767;50.300;8.070;2023-12-20T08:16:52;2.20;;;0.40;;
74342;SDS011;62767;50.300;8.070;2023-12-20T08:19:18;1.38;;;0.57;;
74342;SDS011;62767;50.300;8.070;2023-12-20T08:21:44;1.27;;;0.52;;
74342;SDS011;62767;50.300;8.070;2023-12-20T08:24:10;1.00;;;0.38;;
74342;SDS011;62767;50.300;8.070;2023-12-20T08:26:36;0.47;;;0.30;;
74342;SDS011;62767;50.300;8.070;2023-12-20T08:29:02;2.20;;;0.60;;
74342;SDS011;62767;50.300;8.070;2023-12-20T08:31:28;0.98;;;0.35;;
74342;SDS011;62767;50.300;8.070;2023-12-20T08:33:54;1.45;;;0.50;;
74342;SDS011;62767;50.300;8.070;2023-12-20T08:36:20;0.52;;;0.28;;
74342;SDS011;62767;50.300;8.070;2023-12-20T08:38:50;1.02;;;0.40;;
74342;SDS011;62767;50.300;8.070;2023-12-20T08:41:17;1.70;;;0.60;;
74342;SDS011;62767;50.300;8.070;2023-12-20T08:43:43;2.67;;;0.60;;
74342;SDS011;62767;50.300;8.070;2023-12-20T08:46:09;0.75;;;0.50;;
74342;SDS011;62767;50.300;8.070;2023-12-20T08:48:35;0.75;;;0.50;;
74342;SDS011;62767;50.300;8.070;2023-12-20T08:51:01;2.50;;;0.52;;
74342;SDS011;62767;50.300;8.070;2023-12-20T08:53:28;1.67;;;0.52;;
74342;SDS011;62767;50.300;8.070;2023-12-20T08:55:54;1.02;;;0.50;;
74342;SDS011;62767;50.300;8.070;2023-12-20T08:58:20;1.13;;;0.60;;
74342;SDS011;62767;50.300;8.070;2023-12-20T09:00:46;2.05;;;0.65;;
74342;SDS011;62767;50.300;8.070;2023-12-20T09:03:12;0.93;;;0.57;;
74342;SDS011;62767;50.300;8.070;2023-12-20T09:05:38;1.60;;;0.57;;
74342;SDS011;62767;50.300;8.070;2023-12-20T09:08:04;1.25;;;0.60;;
74342;SDS011;62767;50.300;8.070;2023-12-20T09:10:31;1.70;;;0.80;;
74342;SDS011;62767;50.300;8.070;2023-12-20T09:12:57;2.67;;;0.90;;
74342;SDS011;62767;50.300;8.070;2023-12-20T09:15:26;1.15;;;0.70;;
74342;SDS011;62767;50.300;8.070;2023-12-20T09:17:52;1.80;;;0.93;;
74342;SDS011;62767;50.300;8.070;2023-12-20T09:20:19;1.95;;;0.80;;
74342;SDS011;62767;50.300;8.070;2023-12-20T09:22:45;3.72;;;0.90;;
74342;SDS011;62767;50.300;8.070;2023-12-20T09:25:12;2.70;;;1.10;;
74342;SDS011;62767;50.300;8.070;2023-12-20T09:27:39;2.65;;;0.98;;
74342;SDS011;62767;50.300;8.070;2023-12-20T09:30:05;2.67;;;0.98;;
74342;SDS011;62767;50.300;8.070;2023-12-20T09:32:32;2.58;;;1.00;;
74342;SDS011;62767;50.300;8.070;2023-12-20T09:34:58;2.08;;;0.90;;
74342;SDS011;62767;50.300;8.070;2023-12-20T09:37:27;2.95;;;1.25;;
74342;SDS011;62767;50.300;8.070;2023-12-20T09:39:53;3.15;;;1.10;;
74342;SDS011;62767;50.300;8.070;2023-12-20T09:42:28;2.53;;;1.13;;
74342;SDS011;62767;50.300;8.070;2023-12-20T09:45:07;3.08;;;1.17;;
74342;SDS011;62767;50.300;8.070;2023-12-20T09:47:35;5.00;;;1.45;;
74342;SDS011;62767;50.300;8.070;2023-12-20T09:50:04;3.35;;;1.38;;
74342;SDS011;62767;50.300;8.070;2023-12-20T09:52:31;3.30;;;1.40;;
74342;SDS011;62767;50.300;8.070;2023-12-20T09:54:59;3.60;;;1.25;;
74342;SDS011;62767;50.300;8.070;2023-12-20T09:57:29;2.95;;;1.33;;
74342;SDS011;62767;50.300;8.070;2023-12-20T09:59:55;4.18;;;1.40;;
74342;SDS011;62767;50.300;8.070;2023-12-20T10:02:21;4.15;;;1.50;;
74342;SDS011;62767;50.300;8.070;2023-12-20T10:04:52;3.08;;;1.50;;
74342;SDS011;62767;50.300;8.070;2023-12-20T10:07:18;5.55;;;1.70;;
74342;SDS011;62767;50.300;8.070;2023-12-20T10:09:44;4.82;;;1.48;;
74342;SDS011;62767;50.300;8.070;2023-12-20T10:12:13;3.60;;;1.48;;
74342;SDS011;62767;50.300;8.070;2023-12-20T10:14:39;2.65;;;1.40;;
74342;SDS011;62767;50.300;8.070;2023-12-20T10:17:06;2.90;;;1.40;;
74342;SDS011;62767;50.300;8.070;2023-12-20T10:19:32;4.18;;;1.73;;
74342;SDS011;62767;50.300;8.070;2023-12-20T10:22:03;5.55;;;1.80;;
74342;SDS011;62767;50.300;8.070;2023-12-20T10:24:30;4.50;;;1.60;;
74342;SDS011;62767;50.300;8.070;2023-12-20T10:27:06;4.30;;;1.75;;
74342;SDS011;62767;50.300;8.070;2023-12-20T10:29:33;4.20;;;1.60;;
74342;SDS011;62767;50.300;8.070;2023-12-20T10:35:02;4.03;;;1.42;;
74342;SDS011;62767;50.300;8.070;2023-12-20T10:37:28;6.70;;;2.03;;
74342;SDS011;62767;50.300;8.070;2023-12-20T10:39:54;3.92;;;1.45;;
74342;SDS011;62767;50.300;8.070;2023-12-20T10:42:24;5.43;;;2.00;;
74342;SDS011;62767;50.300;8.070;2023-12-20T10:44:52;4.45;;;1.70;;
74342;SDS011;62767;50.300;8.070;2023-12-20T10:47:19;4.53;;;1.58;;
74342;SDS011;62767;50.300;8.070;2023-12-20T10:49:46;5.65;;;1.95;;
74342;SDS011;62767;50.300;8.070;2023-12-20T10:52:12;3.92;;;1.73;;
74342;SDS011;62767;50.300;8.070;2023-12-20T10:54:40;4.95;;;1.75;;
74342;SDS011;62767;50.300;8.070;2023-12-20T10:57:07;4.38;;;2.20;;
74342;SDS011;62767;50.300;8.070;2023-12-20T10:59:33;6.15;;;1.90;;
74342;SDS011;62767;50.300;8.070;2023-12-20T11:02:02;5.20;;;1.90;;
74342;SDS011;62767;50.300;8.070;2023-12-20T11:09:40;4.38;;;2.00;;
74342;SDS011;62767;50.300;8.070;2023-12-20T11:14:47;4.15;;;2.00;;
74342;SDS011;62767;50.300;8.070;2023-12-20T11:17:16;4.55;;;2.10;;
74342;SDS011;62767;50.300;8.070;2023-12-20T11:20:03;3.78;;;1.92;;
74342;SDS011;62767;50.300;8.070;2023-12-20T11:22:30;4.25;;;1.73;;
74342;SDS011;62767;50.300;8.070;2023-12-20T11:27:29;4.93;;;2.10;;
74342;SDS011;62767;50.300;8.070;2023-12-20T11:29:56;5.10;;;1.67;;
74342;SDS011;62767;50.300;8.070;2023-12-20T11:37:21;5.30;;;2.15;;
74342;SDS011;62767;50.300;8.070;2023-12-20T11:40:22;5.15;;;1.90;;
74342;SDS011;62767;50.300;8.070;2023-12-20T11:42:45;5.88;;;2.10;;
74342;SDS011;62767;50.300;8.070;2023-12-20T11:45:14;4.13;;;1.75;;
74342;SDS011;62767;50.300;8.070;2023-12-20T11:47:42;4.30;;;1.63;;
74342;SDS011;62767;50.300;8.070;2023-12-20T11:50:11;4.38;;;1.83;;
74342;SDS011;62767;50.300;8.070;2023-12-20T11:52:37;4.97;;;2.13;;
74342;SDS011;62767;50.300;8.070;2023-12-20T11:55:03;5.57;;;2.00;;
74342;SDS011;62767;50.300;8.070;2023-12-20T11:57:30;4.57;;;2.20;;
74342;SDS011;62767;50.300;8.070;2023-12-20T11:59:58;4.20;;;1.75;;
74342;SDS011;62767;50.300;8.070;2023-12-20T12:02:24;4.72;;;1.92;;
74342;SDS011;62767;50.300;8.070;2023-12-20T12:04:50;6.03;;;2.30;;
74342;SDS011;62767;50.300;8.070;2023-12-20T12:07:17;4.82;;;2.30;;
74342;SDS011;62767;50.300;8.070;2023-12-20T12:09:43;4.43;;;1.98;;
74342;SDS011;62767;50.300;8.070;2023-12-20T12:12:10;4.75;;;2.08;;
74342;SDS011;62767;50.300;8.070;2023-12-20T12:14:37;5.93;;;1.90;;
74342;SDS011;62767;50.300;8.070;2023-12-20T12:17:04;4.40;;;1.70;;
74342;SDS011;62767;50.300;8.070;2023-12-20T12:19:30;4.70;;;2.00;;
74342;SDS011;62767;50.300;8.070;2023-12-20T12:22:07;5.43;;;2.00;;
74342;SDS011;62767;50.300;8.070;2023-12-20T12:24:38;4.15;;;1.75;;
74342;SDS011;62767;50.300;8.070;2023-12-20T12:27:08;3.35;;;1.73;;
74342;SDS011;62767;50.300;8.070;2023-12-20T12:29:35;5.13;;;2.00;;
74342;SDS011;62767;50.300;8.070;2023-12-20T12:32:04;3.25;;;1.67;;
74342;SDS011;62767;50.300;8.070;2023-12-20T12:34:32;3.28;;;1.55;;
74342;SDS011;62767;50.300;8.070;2023-12-20T12:37:00;3.72;;;1.67;;
74342;SDS011;62767;50.300;8.070;2023-12-20T12:39:26;4.10;;;2.05;;
74342;SDS011;62767;50.300;8.070;2023-12-20T12:41:55;3.72;;;1.75;;
74342;SDS011;62767;50.300;8.070;2023-12-20T12:44:21;5.57;;;2.30;;
74342;SDS011;62767;50.300;8.070;2023-12-20T12:46:49;4.95;;;2.10;;
74342;SDS011;62767;50.300;8.070;2023-12-20T12:49:17;3.35;;;1.52;;
74342;SDS011;62767;50.300;8.070;2023-12-20T12:51:43;3.65;;;1.70;;
74342;SDS011;62767;50.300;8.070;2023-12-20T12:54:09;4.30;;;1.92;;
74342;SDS011;62767;50.300;8.070;2023-12-20T12:56:35;4.20;;;1.48;;
74342;SDS011;62767;50.300;8.070;2023-12-20T13:01:28;3.83;;;1.73;;
74342;SDS011;62767;50.300;8.070;2023-12-20T13:03:54;3.55;;;1.60;;
74342;SDS011;62767;50.300;8.070;2023-12-20T13:06:20;3.35;;;1.70;;
74342;SDS011;62767;50.300;8.070;2023-12-20T13:08:46;3.20;;;1.42;;
74342;SDS011;62767;50.300;8.070;2023-12-20T13:11:12;4.28;;;1.77;;
74342;SDS011;62767;50.300;8.070;2023-12-20T13:13:38;3.53;;;1.70;;
74342;SDS011;62767;50.300;8.070;2023-12-20T13:16:04;4.95;;;1.88;;
74342;SDS011;62767;50.300;8.070;2023-12-20T13:18:31;4.68;;;1.83;;
74342;SDS011;62767;50.300;8.070;2023-12-20T13:20:57;4.18;;;1.60;;
74342;SDS011;62767;50.300;8.070;2023-12-20T13:23:23;3.33;;;1.48;;
74342;SDS011;62767;50.300;8.070;2023-12-20T13:25:49;3.88;;;1.70;;
74342;SDS011;62767;50.300;8.070;2023-12-20T13:28:16;3.25;;;1.50;;
74342;SDS011;62767;50.300;8.070;2023-12-20T13:30:42;4.15;;;1.65;;
74342;SDS011;62767;50.300;8.070;2023-12-20T13:33:08;3.97;;;1.60;;
74342;SDS011;62767;50.300;8.070;2023-12-20T13:35:34;2.50;;;1.30;;
74342;SDS011;62767;50.300;8.070;2023-12-20T13:38:00;4.32;;;1.65;;
74342;SDS011;62767;50.300;8.070;2023-12-20T13:40:26;4.38;;;1.73;;
74342;SDS011;62767;50.300;8.070;2023-12-20T13:42:54;3.88;;;1.55;;
74342;SDS011;62767;50.300;8.070;2023-12-20T13:45:20;3.85;;;1.65;;
74342;SDS011;62767;50.300;8.070;2023-12-20T13:47:46;4.60;;;1.63;;
74342;SDS011;62767;50.300;8.070;2023-12-20T13:50:12;3.28;;;1.60;;
74342;SDS011;62767;50.300;8.070;2023-12-20T13:52:38;4.70;;;1.65;;
74342;SDS011;62767;50.300;8.070;2023-12-20T13:55:04;2.92;;;1.77;;
74342;SDS011;62767;50.300;8.070;2023-12-20T13:57:33;3.60;;;1.30;;
74342;SDS011;62767;50.300;8.070;2023-12-20T13:59:59;3.60;;;1.55;;
74342;SDS011;62767;50.300;8.070;2023-12-20T14:02:25;3.58;;;1.83;;
74342;SDS011;62767;50.300;8.070;2023-12-20T14:04:52;3.92;;;1.80;;
74342;SDS011;62767;50.300;8.070;2023-12-20T14:07:18;3.90;;;1.63;;
74342;SDS011;62767;50.300;8.070;2023-12-20T14:09:44;3.80;;;1.52;;
74342;SDS011;62767;50.300;8.070;2023-12-20T14:12:11;4.93;;;1.63;;
74342;SDS011;62767;50.300;8.070;2023-12-20T14:14:37;3.75;;;1.60;;
74342;SDS011;62767;50.300;8.070;2023-12-20T14:17:04;3.92;;;1.90;;
74342;SDS011;62767;50.300;8.070;2023-12-20T14:19:32;3.42;;;1.60;;
74342;SDS011;62767;50.300;8.070;2023-12-20T14:21:58;3.08;;;1.30;;
74342;SDS011;62767;50.300;8.070;2023-12-20T14:24:27;4.43;;;1.52;;
74342;SDS011;62767;50.300;8.070;2023-12-20T14:26:53;3.35;;;1.63;;
74342;SDS011;62767;50.300;8.070;2023-12-20T14:29:19;3.60;;;1.70;;
74342;SDS011;62767;50.300;8.070;2023-12-20T14:31:45;3.47;;;1.75;;
74342;SDS011;62767;50.300;8.070;2023-12-20T14:34:11;3.58;;;1.50;;
74342;SDS011;62767;50.300;8.070;2023-12-20T14:36:38;2.58;;;1.25;;
74342;SDS011;62767;50.300;8.070;2023-12-20T14:39:04;3.97;;;1.63;;
74342;SDS011;62767;50.300;8.070;2023-12-20T14:41:30;3.13;;;1.58;;
74342;SDS011;62767;50.300;8.070;2023-12-20T14:43:56;2.88;;;1.45;;
74342;SDS011;62767;50.300;8.070;2023-12-20T14:46:22;3.55;;;1.67;;
74342;SDS011;62767;50.300;8.070;2023-12-20T14:48:48;3.85;;;1.90;;
74342;SDS011;62767;50.300;8.070;2023-12-20T14:51:15;3.83;;;1.70;;
74342;SDS011;62767;50.300;8.070;2023-12-20T14:53:41;4.53;;;1.80;;
74342;SDS011;62767;50.300;8.070;2023-12-20T14:56:08;3.78;;;1.70;;
74342;SDS011;62767;50.300;8.070;2023-12-20T14:58:34;3.42;;;1.50;;
74342;SDS011;62767;50.300;8.070;2023-12-20T15:01:00;3.22;;;1.33;;
74342;SDS011;62767;50.300;8.070;2023-12-20T15:03:26;3.47;;;1.60;;
74342;SDS011;62767;50.300;8.070;2023-12-20T15:05:54;3.10;;;1.48;;